Time;durP1;ratioP1;P1;durP2;ratioP2;P2;SDS_P1;SDS_P2;PMS_P1;PMS_P2;Temp;Humidity;BMP_temperature;BMP_pressure;BME280_temperature;BME280_humidity;BME280_pressure;Samples;Min_cycle;Max_cycle;Signal;HPM_P1;HPM_P2
2021/05/19 00:01:26;;;;;;;54.00;31.80;;;9.10;99.90;;;;;;5010604;28;20177;-70
2021/05/19 00:03:52;;;;;;;57.57;32.13;;;9.20;99.90;;;;;;5011398;28;20205;-70
2021/05/19 00:06:18;;;;;;;61.20;30.80;;;9.30;99.90;;;;;;5011691;28;20486;-71
2021/05/19 00:08:43;;;;;;;51.97;31.97;;;9.40;99.90;;;;;;5011748;28;20773;-68
2021/05/19 00:11:09;;;;;;;55.40;33.60;;;9.40;99.90;;;;;;4993451;28;20189;-69
2021/05/19 00:13:36;;;;;;;53.53;30.33;;;9.30;99.90;;;;;;4996882;28;20271;-70
2021/05/19 00:16:02;;;;;;;49.80;29.73;;;9.40;99.90;;;;;;5011483;28;20193;-69
2021/05/19 00:18:28;;;;;;;49.20;29.77;;;9.40;99.90;;;;;;5010734;28;20462;-71
2021/05/19 00:20:53;;;;;;;51.80;30.00;;;9.40;99.90;;;;;;5011565;28;20794;-67
2021/05/19 00:23:19;;;;;;;47.43;28.67;;;9.40;99.90;;;;;;5010564;28;20662;-69
2021/05/19 00:25:45;;;;;;;56.17;30.47;;;9.40;99.90;;;;;;5011467;28;20189;-70
2021/05/19 00:28:10;;;;;;;43.07;29.00;;;9.40;99.90;;;;;;5002011;28;20856;-69
2021/05/19 00:30:37;;;;;;;47.70;28.93;;;9.40;99.90;;;;;;4999604;28;20186;-70
2021/05/19 00:33:05;;;;;;;44.73;27.63;;;9.30;99.90;;;;;;5027983;28;21390;-71
2021/05/19 00:35:32;;;;;;;51.20;28.27;;;9.40;99.90;;;;;;5032681;28;20899;-70
2021/05/19 00:37:57;;;;;;;45.10;28.20;;;9.30;99.90;;;;;;5036730;28;20992;-72
2021/05/19 00:40:23;;;;;;;44.00;28.30;;;9.40;99.90;;;;;;5047342;28;20522;-72
2021/05/19 00:42:49;;;;;;;48.87;30.53;;;9.30;99.90;;;;;;5046175;28;20249;-73
2021/05/19 00:45:15;;;;;;;52.27;28.90;;;9.20;99.90;;;;;;5035334;28;20550;-71
2021/05/19 00:47:42;;;;;;;48.90;28.60;;;9.10;99.90;;;;;;5041992;28;20197;-72
2021/05/19 00:50:15;;;;;;;44.10;27.60;;;9.10;99.90;;;;;;5055176;28;20968;-72
2021/05/19 00:52:41;;;;;;;48.07;27.43;;;9.00;99.90;;;;;;5054872;28;20769;-71
2021/05/19 00:55:07;;;;;;;44.97;29.07;;;8.90;99.90;;;;;;5054786;28;20472;-71
2021/05/19 00:57:33;;;;;;;46.63;27.70;;;8.90;99.90;;;;;;5054722;28;20181;-71
2021/05/19 00:59:59;;;;;;;45.20;27.47;;;8.90;99.90;;;;;;5054354;28;20430;-71
2021/05/19 01:02:25;;;;;;;43.27;26.67;;;8.90;99.90;;;;;;5054582;28;20410;-71
2021/05/19 01:04:51;;;;;;;52.50;29.00;;;8.80;99.90;;;;;;5054378;28;20418;-71
2021/05/19 01:07:27;;;;;;;44.93;27.00;;;8.80;99.90;;;;;;5054788;28;20169;-71
2021/05/19 01:09:52;;;;;;;45.00;28.10;;;8.70;99.90;;;;;;5014937;28;20566;-73
2021/05/19 01:12:23;;;;;;;51.80;30.30;;;8.80;99.90;;;;;;5013702;28;20435;-72
2021/05/19 01:14:51;;;;;;;43.47;26.93;;;8.90;99.90;;;;;;5009270;28;20177;-71
2021/05/19 01:17:17;;;;;;;48.23;29.50;;;8.90;99.90;;;;;;5014629;28;20408;-71
2021/05/19 01:19:48;;;;;;;44.03;27.87;;;8.90;99.90;;;;;;5014607;28;20456;-69
2021/05/19 01:22:29;;;;;;;48.87;28.33;;;9.00;99.90;;;;;;5014749;28;20469;-71
2021/05/19 01:24:55;;;;;;;50.00;27.50;;;9.00;99.90;;;;;;5014399;28;20524;-70
2021/05/19 01:27:22;;;;;;;50.50;28.80;;;9.20;99.90;;;;;;5014452;28;20420;-70
2021/05/19 01:29:49;;;;;;;45.30;28.70;;;9.20;99.90;;;;;;5014363;28;20921;-70
2021/05/19 01:32:15;;;;;;;57.70;30.07;;;9.20;99.90;;;;;;5014506;28;20432;-71
2021/05/19 01:34:41;;;;;;;44.53;27.47;;;9.30;99.90;;;;;;5014160;28;20421;-71
2021/05/19 01:37:11;;;;;;;48.23;28.40;;;9.30;99.90;;;;;;5014378;28;20448;-72
2021/05/19 01:39:37;;;;;;;47.47;27.63;;;9.40;99.90;;;;;;5014225;28;20891;-72
2021/05/19 01:42:03;;;;;;;50.20;28.83;;;9.50;99.90;;;;;;5014434;28;20500;-70
2021/05/19 01:44:29;;;;;;;47.93;28.10;;;9.50;99.90;;;;;;5014254;28;20556;-71
2021/05/19 01:46:54;;;;;;;47.20;29.00;;;9.50;99.90;;;;;;5015761;28;20412;-72
2021/05/19 01:49:22;;;;;;;51.43;29.67;;;9.40;99.90;;;;;;5054592;28;20441;-72
2021/05/19 01:51:49;;;;;;;45.30;27.73;;;9.40;99.90;;;;;;5054380;28;20168;-71
2021/05/19 01:54:15;;;;;;;48.23;27.63;;;9.40;99.90;;;;;;5054316;28;20443;-70
2021/05/19 01:56:41;;;;;;;43.70;27.67;;;9.40;99.90;;;;;;5054706;28;20418;-71
2021/05/19 01:59:07;;;;;;;44.63;28.10;;;9.40;99.90;;;;;;5054282;28;20438;-70
2021/05/19 02:01:33;;;;;;;45.60;27.43;;;9.50;99.90;;;;;;5054260;28;20413;-70
2021/05/19 02:04:14;;;;;;;45.43;27.80;;;9.50;99.90;;;;;;5053504;28;20452;-70
2021/05/19 02:06:43;;;;;;;44.63;27.60;;;9.60;99.90;;;;;;5053608;28;20437;-71
2021/05/19 02:09:10;;;;;;;42.17;26.30;;;9.60;99.90;;;;;;5024587;28;20469;-71
2021/05/19 02:11:36;;;;;;;41.20;25.50;;;9.50;99.90;;;;;;5013753;28;20413;-71
2021/05/19 02:14:01;;;;;;;44.43;27.73;;;9.30;99.90;;;;;;5022831;28;20415;-71
2021/05/19 02:16:27;;;;;;;47.07;24.47;;;9.20;99.90;;;;;;5033754;28;20572;-71
2021/05/19 02:18:53;;;;;;;43.40;26.40;;;9.10;99.90;;;;;;5033395;28;20449;-71
2021/05/19 02:21:18;;;;;;;43.80;27.10;;;9.00;99.90;;;;;;5033963;28;20187;-71
2021/05/19 02:23:44;;;;;;;37.03;23.37;;;8.90;99.90;;;;;;5033467;28;20205;-71
2021/05/19 02:26:09;;;;;;;42.80;25.10;;;8.90;99.90;;;;;;5033956;28;20173;-71
2021/05/19 02:28:35;;;;;;;47.70;25.43;;;8.90;99.90;;;;;;5033713;28;20198;-71
2021/05/19 02:31:01;;;;;;;39.70;24.40;;;8.90;99.90;;;;;;5033558;28;20625;-70
2021/05/19 02:33:26;;;;;;;46.50;25.53;;;8.80;99.90;;;;;;5033441;28;20185;-71
2021/05/19 02:35:53;;;;;;;39.70;24.57;;;8.70;99.90;;;;;;5033729;28;20236;-70
2021/05/19 02:38:19;;;;;;;35.17;23.00;;;8.70;99.90;;;;;;5033904;28;20224;-71
2021/05/19 02:40:44;;;;;;;38.97;24.77;;;8.60;99.90;;;;;;5035131;28;20916;-71
2021/05/19 02:43:10;;;;;;;37.40;24.07;;;8.70;99.90;;;;;;5033197;28;20465;-71
2021/05/19 02:45:36;;;;;;;40.70;23.27;;;8.70;99.90;;;;;;5015044;28;20189;-71
2021/05/19 02:48:01;;;;;;;36.47;23.80;;;8.60;99.90;;;;;;5042306;28;20241;-71
2021/05/19 02:50:27;;;;;;;39.27;24.10;;;8.50;99.90;;;;;;5052707;28;20169;-71
2021/05/19 02:52:52;;;;;;;39.60;25.10;;;8.70;99.90;;;;;;5052656;28;20263;-71
2021/05/19 02:55:18;;;;;;;39.90;23.67;;;8.60;99.90;;;;;;5052692;28;20593;-71
2021/05/19 02:57:44;;;;;;;42.00;25.40;;;8.60;99.90;;;;;;5051724;28;20632;-71
2021/05/19 03:00:11;;;;;;;42.97;23.77;;;8.70;99.90;;;;;;5052609;28;20182;-71
2021/05/19 03:02:36;;;;;;;41.50;24.00;;;8.70;99.90;;;;;;5052568;28;20211;-71
2021/05/19 03:05:03;;;;;;;38.57;24.97;;;8.70;99.90;;;;;;5052529;28;20443;-71
2021/05/19 03:07:28;;;;;;;35.47;21.43;;;8.80;99.90;;;;;;5051136;28;20186;-72
2021/05/19 03:09:54;;;;;;;35.80;23.07;;;8.90;99.90;;;;;;5013000;28;20431;-71
2021/05/19 03:12:20;;;;;;;34.73;20.63;;;9.00;99.90;;;;;;5013222;28;20264;-71
2021/05/19 03:14:46;;;;;;;27.03;20.00;;;9.10;99.90;;;;;;5028283;28;20177;-71
2021/05/19 03:17:11;;;;;;;31.63;18.83;;;9.30;99.90;;;;;;5032736;28;20169;-71
2021/05/19 03:19:37;;;;;;;34.60;20.00;;;9.40;99.90;;;;;;5032292;28;20197;-71
2021/05/19 03:22:03;;;;;;;28.77;19.67;;;9.50;99.90;;;;;;5032259;28;20620;-71
2021/05/19 03:24:28;;;;;;;25.17;18.20;;;9.50;99.90;;;;;;5030684;28;20208;-71
2021/05/19 03:26:54;;;;;;;29.90;19.40;;;9.60;99.90;;;;;;5032075;28;20416;-71
2021/05/19 03:29:19;;;;;;;24.70;17.87;;;9.70;99.90;;;;;;5032003;28;20251;-71
2021/05/19 03:31:45;;;;;;;30.23;18.53;;;9.70;99.90;;;;;;5031685;28;20177;-71
2021/05/19 03:34:11;;;;;;;27.67;19.47;;;9.80;99.90;;;;;;5031953;28;20237;-71
2021/05/19 03:36:37;;;;;;;26.67;18.53;;;9.80;99.90;;;;;;5032224;28;20313;-71
2021/05/19 03:39:05;;;;;;;30.43;19.47;;;9.90;99.90;;;;;;5031853;28;20268;-71
2021/05/19 03:41:30;;;;;;;26.77;18.40;;;10.10;99.90;;;;;;5035047;28;20180;-71
2021/05/19 03:43:56;;;;;;;25.53;18.60;;;10.10;99.90;;;;;;5034493;28;20479;-71
2021/05/19 03:46:21;;;;;;;27.33;19.03;;;10.10;99.90;;;;;;5033734;28;20191;-71
2021/05/19 03:48:50;;;;;;;25.03;18.87;;;10.10;99.90;;;;;;5050241;28;20201;-71
2021/05/19 03:51:15;;;;;;;25.53;19.07;;;10.10;99.90;;;;;;5053463;28;20184;-71
2021/05/19 03:53:41;;;;;;;31.30;18.77;;;10.10;99.90;;;;;;5054246;28;20422;-71
2021/05/19 03:56:07;;;;;;;29.83;19.67;;;10.10;99.90;;;;;;5057748;28;20179;-71
2021/05/19 03:58:32;;;;;;;23.27;16.90;;;10.10;99.90;;;;;;5059006;28;20205;-71
2021/05/19 04:00:58;;;;;;;24.60;17.33;;;10.10;99.90;;;;;;5056434;28;20177;-72
2021/05/19 04:03:25;;;;;;;25.40;17.87;;;10.10;99.90;;;;;;5056084;28;20331;-71
2021/05/19 04:05:51;;;;;;;25.90;19.60;;;10.10;99.90;;;;;;5057050;28;20592;-71
2021/05/19 04:08:16;;;;;;;32.80;18.67;;;10.10;99.90;;;;;;5041849;28;20446;-71
2021/05/19 04:10:42;;;;;;;25.00;18.23;;;10.00;99.90;;;;;;5019017;28;20658;-72
2021/05/19 04:13:08;;;;;;;31.43;21.17;;;10.00;99.90;;;;;;5018076;28;20174;-71
2021/05/19 04:15:35;;;;;;;32.93;19.60;;;10.00;99.90;;;;;;5035998;28;20448;-71
2021/05/19 04:18:00;;;;;;;26.00;18.37;;;9.90;99.90;;;;;;5035586;28;20181;-71
2021/05/19 04:20:27;;;;;;;30.23;19.90;;;9.90;99.90;;;;;;5018478;28;20418;-70
2021/05/19 04:22:53;;;;;;;29.27;20.30;;;9.90;99.90;;;;;;5035898;28;20830;-70
2021/05/19 04:25:18;;;;;;;32.10;21.20;;;10.00;99.90;;;;;;5036207;28;20417;-70
2021/05/19 04:27:44;;;;;;;31.27;21.40;;;10.00;99.90;;;;;;5035639;28;20460;-71
2021/05/19 04:30:10;;;;;;;37.70;21.30;;;10.10;99.90;;;;;;5035745;28;20201;-71
2021/05/19 04:32:37;;;;;;;32.67;22.07;;;10.10;99.90;;;;;;5035637;28;20166;-70
2021/05/19 04:35:05;;;;;;;33.90;20.17;;;10.20;99.90;;;;;;5035588;28;20409;-70
2021/05/19 04:37:30;;;;;;;30.07;20.23;;;10.40;99.90;;;;;;5035627;28;20508;-73
2021/05/19 04:39:56;;;;;;;31.53;21.27;;;10.60;99.90;;;;;;5035857;28;20503;-72
2021/05/19 04:42:22;;;;;;;31.63;20.53;;;10.70;99.90;;;;;;5035569;28;20229;-73
2021/05/19 04:44:47;;;;;;;30.30;20.10;;;10.90;99.90;;;;;;5035230;28;20183;-70
2021/05/19 04:47:13;;;;;;;30.37;21.17;;;11.00;94.80;;;;;;5038574;28;20174;-72
2021/05/19 04:49:38;;;;;;;28.20;19.30;;;11.10;94.30;;;;;;5055773;28;20240;-71
2021/05/19 04:52:04;;;;;;;22.07;16.60;;;11.20;88.40;;;;;;5055530;28;20175;-72
2021/05/19 04:54:30;;;;;;;29.57;18.57;;;11.40;81.90;;;;;;5054702;28;20248;-72
2021/05/19 04:56:55;;;;;;;23.30;17.37;;;11.50;80.30;;;;;;5055719;28;20437;-72
2021/05/19 04:59:21;;;;;;;37.03;19.60;;;11.70;76.60;;;;;;5056134;28;20206;-72
2021/05/19 05:01:47;;;;;;;25.53;18.13;;;11.70;73.80;;;;;;5054266;28;20377;-71
2021/05/19 05:04:12;;;;;;;22.13;16.00;;;11.70;69.40;;;;;;5055789;28;20711;-72
2021/05/19 05:06:38;;;;;;;24.40;17.30;;;11.80;67.30;;;;;;5056758;28;20171;-73
2021/05/19 05:09:04;;;;;;;23.53;16.40;;;11.80;68.30;;;;;;5029855;28;20204;-73
2021/05/19 05:11:29;;;;;;;30.87;16.80;;;11.80;69.30;;;;;;5018673;28;20414;-71
2021/05/19 05:13:56;;;;;;;30.23;16.80;;;12.00;63.90;;;;;;5025750;28;20176;-72
2021/05/19 05:16:21;;;;;;;24.57;16.47;;;12.00;64.60;;;;;;5037104;28;20257;-73
2021/05/19 05:18:47;;;;;;;28.73;16.77;;;12.10;64.00;;;;;;5036440;28;20442;-73
2021/05/19 05:21:12;;;;;;;22.80;15.00;;;12.10;63.90;;;;;;5036043;28;20180;-72
2021/05/19 05:23:38;;;;;;;23.80;14.47;;;12.20;63.00;;;;;;5036723;28;20246;-73
2021/05/19 05:26:04;;;;;;;29.70;14.57;;;12.30;59.80;;;;;;5018546;28;20202;-72
2021/05/19 05:28:31;;;;;;;20.73;14.30;;;12.40;57.40;;;;;;5040448;28;20218;-74
2021/05/19 05:30:57;;;;;;;34.67;15.47;;;12.50;56.80;;;;;;5041630;28;20833;-71
2021/05/19 05:33:23;;;;;;;23.37;13.70;;;12.50;57.30;;;;;;5020533;28;20429;-73
2021/05/19 05:35:49;;;;;;;27.33;14.37;;;12.60;58.00;;;;;;5035481;28;20540;-73
2021/05/19 05:38:15;;;;;;;29.23;13.83;;;12.60;55.40;;;;;;5035246;28;20525;-71
2021/05/19 05:40:41;;;;;;;26.50;14.20;;;12.60;56.20;;;;;;5034332;28;20430;-71
2021/05/19 05:43:06;;;;;;;22.90;13.00;;;12.90;52.50;;;;;;5032574;28;20872;-72
2021/05/19 05:45:32;;;;;;;30.63;13.80;;;12.90;51.90;;;;;;5034490;28;20533;-72
2021/05/19 05:47:58;;;;;;;30.47;13.60;;;13.00;49.80;;;;;;5043134;28;20611;-72
2021/05/19 05:50:24;;;;;;;24.33;13.07;;;13.00;51.00;;;;;;5054602;28;20182;-72
2021/05/19 05:52:50;;;;;;;22.03;11.93;;;13.00;49.80;;;;;;5053743;28;20516;-72
2021/05/19 05:55:16;;;;;;;20.70;11.97;;;13.20;47.10;;;;;;5054193;28;20820;-71
2021/05/19 05:57:42;;;;;;;19.33;11.83;;;13.30;47.00;;;;;;5036860;28;20651;-71
2021/05/19 06:00:09;;;;;;;19.03;12.07;;;13.40;46.90;;;;;;5053931;28;20471;-71
2021/05/19 06:02:35;;;;;;;21.83;11.27;;;13.60;46.70;;;;;;5053124;28;20532;-71
2021/05/19 06:05:01;;;;;;;26.80;10.20;;;13.60;44.70;;;;;;5053642;28;20464;-72
2021/05/19 06:07:27;;;;;;;22.67;10.90;;;13.60;44.60;;;;;;5034322;28;20240;-72
2021/05/19 06:09:53;;;;;;;16.93;10.77;;;13.50;43.80;;;;;;5013862;28;20202;-71
2021/05/19 06:12:21;;;;;;;23.70;12.90;;;13.30;44.70;;;;;;5014251;28;20174;-71
2021/05/19 06:14:47;;;;;;;24.10;11.37;;;13.10;47.00;;;;;;5034504;28;20777;-72
2021/05/19 06:17:14;;;;;;;35.57;11.57;;;12.90;47.10;;;;;;5040080;28;20746;-72
2021/05/19 06:19:40;;;;;;;21.23;10.70;;;12.80;48.40;;;;;;5035670;28;20438;-72
2021/05/19 06:22:07;;;;;;;23.30;11.13;;;12.80;49.70;;;;;;5034097;28;20991;-72
2021/05/19 06:24:32;;;;;;;30.60;9.90;;;12.70;49.70;;;;;;5033546;28;20450;-72
2021/05/19 06:26:58;;;;;;;25.53;11.23;;;12.80;49.00;;;;;;5033208;28;20781;-72
2021/05/19 06:29:23;;;;;;;20.77;9.70;;;12.70;49.70;;;;;;5033016;28;20191;-72
2021/05/19 06:31:49;;;;;;;21.17;9.90;;;12.70;49.00;;;;;;5033316;28;20211;-72
2021/05/19 06:34:15;;;;;;;16.33;9.33;;;12.70;48.30;;;;;;5033106;28;20190;-72
2021/05/19 06:36:45;;;;;;;38.97;9.30;;;12.70;48.00;;;;;;5033304;28;20212;-73
2021/05/19 06:39:10;;;;;;;23.27;8.97;;;12.70;49.50;;;;;;5033224;28;20556;-72
2021/05/19 06:41:37;;;;;;;16.77;9.07;;;12.70;48.60;;;;;;5033288;28;20501;-72
2021/05/19 06:44:02;;;;;;;26.57;9.90;;;12.70;47.80;;;;;;5033054;28;20192;-72
2021/05/19 06:46:28;;;;;;;18.07;8.70;;;12.90;46.80;;;;;;5033347;28;20469;-73
2021/05/19 06:48:54;;;;;;;28.10;9.73;;;13.10;47.00;;;;;;5049953;28;20427;-72
2021/05/19 06:51:19;;;;;;;18.30;10.03;;;13.20;47.60;;;;;;5036473;28;20171;-73
2021/05/19 06:53:45;;;;;;;19.43;10.30;;;13.60;47.00;;;;;;5053504;28;20183;-72
2021/05/19 06:56:12;;;;;;;21.57;10.27;;;13.80;44.30;;;;;;5053207;28;20169;-72
2021/05/19 06:58:38;;;;;;;25.50;9.37;;;13.80;42.70;;;;;;5053030;28;20191;-72
2021/05/19 07:01:03;;;;;;;15.93;8.67;;;13.90;41.20;;;;;;5035019;28;21201;-72
2021/05/19 07:03:31;;;;;;;17.30;9.20;;;13.90;41.40;;;;;;5052589;28;20234;-72
2021/05/19 07:05:56;;;;;;;18.77;7.97;;;14.00;41.50;;;;;;5034782;28;20171;-72
2021/05/19 07:08:22;;;;;;;20.83;9.10;;;13.90;40.90;;;;;;5036586;28;20505;-72
2021/05/19 07:10:48;;;;;;;20.43;10.30;;;13.80;41.10;;;;;;4994906;28;20575;-72
2021/05/19 07:13:16;;;;;;;26.13;9.73;;;13.80;42.30;;;;;;5014783;28;20649;-72
2021/05/19 07:15:42;;;;;;;395.43;228.30;;;13.90;42.10;;;;;;5032082;28;20205;-74
2021/05/19 07:18:11;;;;;;;160.03;80.50;;;14.20;42.00;;;;;;5032270;28;20491;-73
2021/05/19 07:20:37;;;;;;;32.33;17.70;;;14.50;38.80;;;;;;5030859;28;20187;-72
2021/05/19 07:23:03;;;;;;;80.83;42.87;;;14.50;39.40;;;;;;5031884;28;20457;-71
2021/05/19 07:25:29;;;;;;;22.23;9.43;;;14.70;38.70;;;;;;5032586;28;20382;-73
2021/05/19 07:27:54;;;;;;;13.77;7.97;;;14.80;37.50;;;;;;5032214;28;20414;-72
2021/05/19 07:30:21;;;;;;;26.23;14.00;;;15.00;36.40;;;;;;5032357;28;20187;-71
2021/05/19 07:32:46;;;;;;;25.57;9.30;;;15.00;37.60;;;;;;5031702;28;20276;-71
2021/05/19 07:35:13;;;;;;;20.33;9.53;;;15.10;36.40;;;;;;5032106;28;20424;-72
2021/05/19 07:37:39;;;;;;;57.50;30.73;;;15.30;35.70;;;;;;5031858;28;20569;-72
2021/05/19 07:40:05;;;;;;;18.77;9.17;;;15.40;35.80;;;;;;5031524;28;20441;-72
2021/05/19 07:42:31;;;;;;;21.83;8.00;;;15.70;33.90;;;;;;5031296;28;20414;-74
2021/05/19 07:44:57;;;;;;;15.83;7.47;;;16.00;31.90;;;;;;5031393;28;20424;-73
2021/05/19 07:47:23;;;;;;;59.70;33.80;;;16.20;32.10;;;;;;5037395;28;20205;-73
2021/05/19 07:49:49;;;;;;;13.70;6.17;;;16.60;30.50;;;;;;5034617;28;20473;-73
2021/05/19 07:52:14;;;;;;;12.97;5.63;;;16.80;28.00;;;;;;5052740;28;20420;-73
2021/05/19 07:54:40;;;;;;;17.00;6.73;;;17.00;28.00;;;;;;5040797;28;20567;-72
2021/05/19 07:57:16;;;;;;;14.43;5.33;;;17.10;27.20;;;;;;5021384;28;20194;-73
2021/05/19 07:59:43;;;;;;;18.67;8.53;;;17.50;26.30;;;;;;5013051;28;20188;-73
2021/05/19 08:02:11;;;;;;;11.15;6.35;;;17.50;26.50;;;;;;5032832;28;20404;-72
2021/05/19 08:04:37;;;;;;;11.10;5.40;;;17.20;27.40;;;;;;5036458;28;20570;-72
2021/05/19 08:07:04;;;;;;;19.33;5.40;;;17.30;26.10;;;;;;5016667;28;20438;-72
2021/05/19 08:09:30;;;;;;;13.37;3.90;;;17.20;26.90;;;;;;5029143;28;20942;-73
2021/05/19 08:11:56;;;;;;;13.97;4.10;;;17.20;26.50;;;;;;5033418;28;20406;-73
2021/05/19 08:14:26;;;;;;;7.83;3.70;;;17.10;26.00;;;;;;5031955;28;20436;-73
2021/05/19 08:16:51;;;;;;;9.10;3.67;;;17.00;26.80;;;;;;5032036;28;20442;-73
2021/05/19 08:19:17;;;;;;;18.03;6.00;;;16.60;27.60;;;;;;5054193;28;20426;-72
2021/05/19 08:21:43;;;;;;;11.33;4.00;;;16.60;27.90;;;;;;5039517;28;20180;-73
2021/05/19 08:24:09;;;;;;;6.93;4.30;;;16.30;29.70;;;;;;5015757;28;20350;-73
2021/05/19 08:26:35;;;;;;;11.00;3.00;;;16.20;29.20;;;;;;5017373;28;20199;-73
2021/05/19 08:29:01;;;;;;;10.80;3.40;;;16.00;28.80;;;;;;5020049;28;20424;-73
2021/05/19 08:31:26;;;;;;;13.03;3.20;;;15.90;28.80;;;;;;5033869;28;20459;-73
2021/05/19 08:33:52;;;;;;;10.13;3.13;;;16.00;29.20;;;;;;5034545;28;20171;-73
2021/05/19 08:36:18;;;;;;;8.20;3.17;;;15.90;29.30;;;;;;5031274;28;20660;-73
2021/05/19 08:38:44;;;;;;;10.37;3.80;;;15.80;29.80;;;;;;4995036;28;20215;-72
2021/05/19 08:41:10;;;;;;;8.97;3.10;;;15.90;31.00;;;;;;5012640;28;20190;-72
2021/05/19 08:43:36;;;;;;;26.20;3.23;;;15.90;29.50;;;;;;5012262;28;20536;-72
2021/05/19 08:46:08;;;;;;;10.10;4.00;;;15.60;31.90;;;;;;5012184;28;20411;-73
2021/05/19 08:48:34;;;;;;;12.50;3.10;;;15.20;34.80;;;;;;5040976;28;20473;-72
2021/05/19 08:50:59;;;;;;;12.20;3.20;;;14.90;38.40;;;;;;5051964;28;20450;-72
2021/05/19 08:53:27;;;;;;;7.13;3.22;;;14.60;40.20;;;;;;5032340;28;20431;-72
2021/05/19 08:55:53;;;;;;;10.90;3.50;;;14.60;39.00;;;;;;5031421;28;20457;-72
2021/05/19 08:58:18;;;;;;;9.25;3.80;;;14.70;41.50;;;;;;5040291;28;20450;-72
2021/05/19 09:00:44;;;;;;;12.80;3.93;;;15.10;39.20;;;;;;5035231;28;20432;-72
2021/05/19 09:03:16;;;;;;;11.45;3.70;;;15.50;36.30;;;;;;5033827;28;20403;-72
2021/05/19 09:05:45;;;;;;;8.95;3.53;;;15.90;32.40;;;;;;5033591;28;20395;-72
2021/05/19 09:08:16;;;;;;;11.20;3.43;;;16.30;31.50;;;;;;5032999;28;20383;-72
2021/05/19 09:10:44;;;;;;;9.15;3.63;;;16.70;28.50;;;;;;5035203;28;21172;-73
2021/05/19 09:13:31;;;;;;;10.07;3.55;;;16.80;29.40;;;;;;5015531;28;20403;-73
2021/05/19 09:15:58;;;;;;;13.68;3.80;;;16.80;26.30;;;;;;5032810;28;20448;-72
2021/05/19 09:18:23;;;;;;;9.55;2.80;;;16.70;28.50;;;;;;5015349;28;20408;-72
2021/05/19 09:20:51;;;;;;;10.23;2.90;;;16.60;28.10;;;;;;5014689;28;20403;-73
2021/05/19 09:23:19;;;;;;;10.43;3.30;;;16.60;27.60;;;;;;5025213;28;20418;-72
2021/05/19 09:26:02;;;;;;;10.30;3.00;;;16.70;28.40;;;;;;5032718;28;20478;-73
2021/05/19 09:28:27;;;;;;;8.60;3.30;;;16.50;28.80;;;;;;5032212;28;20391;-72
2021/05/19 09:30:53;;;;;;;5.80;2.53;;;16.60;30.70;;;;;;5032797;28;20387;-73
2021/05/19 09:33:22;;;;;;;8.82;2.80;;;16.80;26.00;;;;;;5032254;28;20387;-72
2021/05/19 09:36:09;;;;;;;8.83;3.20;;;17.00;24.60;;;;;;5033068;28;20410;-72
2021/05/19 09:38:35;;;;;;;10.38;3.17;;;17.00;26.10;;;;;;5032176;28;20421;-71
2021/05/19 09:41:36;;;;;;;10.52;3.28;;;17.10;24.80;;;;;;5043243;28;20426;-71
2021/05/19 09:44:04;;;;;;;6.78;3.10;;;17.10;24.50;;;;;;4983395;28;20454;-70
2021/05/19 09:49:14;;;;;;;10.68;3.47;;;16.90;27.10;;;;;;5031460;28;20412;-71
2021/05/19 09:51:41;;;;;;;9.52;3.38;;;17.10;26.60;;;;;;5029709;28;20405;-70
2021/05/19 09:54:25;;;;;;;9.15;3.15;;;17.10;25.40;;;;;;5030047;28;20894;-72
2021/05/19 09:57:07;;;;;;;9.13;3.03;;;17.10;24.50;;;;;;5012942;28;20389;-72
2021/05/19 09:59:34;;;;;;;8.45;2.88;;;17.10;24.80;;;;;;5017537;28;20393;-70
2021/05/19 10:02:02;;;;;;;6.93;3.27;;;17.30;23.20;;;;;;5032300;28;20399;-72
2021/05/19 10:04:34;;;;;;;12.13;3.50;;;17.10;25.30;;;;;;5032281;28;20410;-72
2021/05/19 10:07:00;;;;;;;13.48;3.25;;;17.20;24.60;;;;;;5031908;28;20593;-73
2021/05/19 10:09:27;;;;;;;7.57;2.57;;;17.30;24.00;;;;;;5032880;28;20414;-73
2021/05/19 10:11:53;;;;;;;9.25;2.83;;;17.60;21.90;;;;;;5032725;28;20379;-71
2021/05/19 10:14:25;;;;;;;7.55;2.90;;;17.70;22.50;;;;;;5029368;28;20403;-71
2021/05/19 10:17:13;;;;;;;6.22;2.70;;;17.80;22.60;;;;;;5032020;28;20397;-71
2021/05/19 10:19:53;;;;;;;6.53;2.28;;;18.10;20.80;;;;;;5031944;28;20399;-71
2021/05/19 10:22:21;;;;;;;7.77;2.40;;;18.20;19.90;;;;;;5032296;28;20749;-72
2021/05/19 10:27:47;;;;;;;6.65;2.40;;;18.30;20.10;;;;;;5031870;28;20383;-72
2021/05/19 10:30:31;;;;;;;7.10;2.30;;;18.50;17.80;;;;;;5035018;28;20408;-71
2021/05/19 10:32:56;;;;;;;6.32;2.70;;;18.40;18.20;;;;;;5042885;28;20913;-71
2021/05/19 10:35:30;;;;;;;8.90;2.97;;;18.40;19.40;;;;;;5033635;28;20425;-71
2021/05/19 10:37:56;;;;;;;7.22;2.90;;;18.50;19.00;;;;;;5033391;28;20385;-72
2021/05/19 10:40:23;;;;;;;5.82;2.30;;;18.60;18.50;;;;;;5051566;28;20397;-74
2021/05/19 10:42:54;;;;;;;13.32;4.85;;;18.50;18.50;;;;;;5047563;28;20475;-74
2021/05/19 10:45:20;;;;;;;8.87;2.47;;;18.40;18.60;;;;;;5031611;28;20419;-74
2021/05/19 10:47:46;;;;;;;6.35;2.60;;;17.90;19.40;;;;;;5020885;28;20385;-73
2021/05/19 11:01:09;;;;;;;5.22;2.45;;;18.20;17.50;;;;;;5010053;28;20435;-71
2021/05/19 11:03:36;;;;;;;5.80;1.90;;;18.30;16.90;;;;;;5019013;28;20414;-71
2021/05/19 11:06:04;;;;;;;5.60;2.00;;;18.30;15.80;;;;;;5030357;28;20398;-71
2021/05/19 11:08:31;;;;;;;6.97;2.10;;;18.20;16.30;;;;;;5029797;28;20399;-72
2021/05/19 11:11:16;;;;;;;9.25;2.50;;;18.10;17.40;;;;;;5031980;28;20470;-72
2021/05/19 11:14:13;;;;;;;6.47;2.50;;;18.40;17.00;;;;;;5031967;28;20508;-72
2021/05/19 11:16:43;;;;;;;10.60;2.70;;;18.50;16.90;;;;;;5034849;28;20391;-73
2021/05/19 11:19:18;;;;;;;4.78;2.17;;;18.60;17.40;;;;;;5030517;28;20850;-72
2021/05/19 11:21:44;;;;;;;7.22;2.30;;;18.80;16.00;;;;;;5046638;28;20442;-72
2021/05/19 11:24:13;;;;;;;4.72;2.30;;;19.00;15.90;;;;;;5038053;28;20899;-71
2021/05/19 11:26:46;;;;;;;8.13;2.55;;;19.00;15.00;;;;;;5030336;28;20407;-72
2021/05/19 11:29:14;;;;;;;5.73;2.60;;;18.60;15.50;;;;;;5030463;28;20430;-72
2021/05/19 11:31:43;;;;;;;5.78;2.55;;;18.30;16.20;;;;;;5021628;28;20400;-72
2021/05/19 11:34:20;;;;;;;4.03;2.30;;;17.90;17.50;;;;;;5019963;28;20834;-74
2021/05/19 11:36:55;;;;;;;6.80;2.10;;;17.50;19.00;;;;;;5040133;28;20763;-73
2021/05/19 11:39:38;;;;;;;5.75;2.30;;;17.10;20.60;;;;;;5005934;28;20455;-75
2021/05/19 11:42:23;;;;;;;6.78;2.17;;;16.40;25.30;;;;;;5000212;28;20493;-74
2021/05/19 11:44:55;;;;;;;8.88;2.20;;;15.90;28.70;;;;;;5030673;28;20843;-75
2021/05/19 11:47:27;;;;;;;8.90;2.33;;;15.90;29.10;;;;;;5017080;28;20455;-74
2021/05/19 11:50:15;;;;;;;8.73;1.90;;;16.00;28.90;;;;;;5050735;28;20775;-75
2021/05/19 11:52:59;;;;;;;8.35;2.20;;;16.40;27.30;;;;;;5013158;28;20403;-75
2021/05/19 11:55:27;;;;;;;5.38;2.03;;;17.00;25.50;;;;;;5024012;28;20427;-75
2021/05/19 11:58:22;;;;;;;17.15;2.50;;;17.60;23.40;;;;;;5030820;28;20494;-76
2021/05/19 12:00:57;;;;;;;7.10;2.30;;;18.10;21.10;;;;;;5030221;28;20752;-76
2021/05/19 12:03:24;;;;;;;7.88;1.80;;;18.40;19.60;;;;;;5030137;28;20823;-75
2021/05/19 12:05:55;;;;;;;8.80;1.80;;;18.50;18.40;;;;;;5029891;28;20399;-76
2021/05/19 12:08:22;;;;;;;8.20;1.70;;;18.80;16.90;;;;;;5030245;28;20733;-71
2021/05/19 12:11:00;;;;;;;7.90;1.90;;;19.20;16.10;;;;;;5030359;28;20389;-72
2021/05/19 12:13:27;;;;;;;6.47;2.03;;;19.40;15.70;;;;;;5028636;28;20403;-72
2021/05/19 12:15:52;;;;;;;5.45;1.50;;;19.60;15.20;;;;;;5030552;28;20698;-71
2021/05/19 12:18:18;;;;;;;6.93;1.98;;;19.70;15.30;;;;;;5030055;28;20391;-72
2021/05/19 12:20:43;;;;;;;4.70;1.87;;;20.00;15.10;;;;;;5030271;28;20758;-72
2021/05/19 12:23:10;;;;;;;5.83;1.70;;;20.20;14.90;;;;;;5026988;28;20853;-74
2021/05/19 12:25:36;;;;;;;8.10;2.10;;;20.40;14.40;;;;;;5030574;28;20466;-72
2021/05/19 12:28:08;;;;;;;4.90;2.00;;;20.30;15.40;;;;;;5029681;28;20413;-72
2021/05/19 12:30:47;;;;;;;6.78;2.95;;;20.30;15.60;;;;;;5033495;28;20411;-71
2021/05/19 12:33:14;;;;;;;10.43;3.00;;;19.10;18.20;;;;;;5033407;28;20395;-71
2021/05/19 12:35:47;;;;;;;7.60;3.92;;;18.00;19.90;;;;;;5034122;28;20907;-73
2021/05/19 12:40:46;;;;;;;9.95;2.80;;;17.10;23.30;;;;;;5030465;28;20776;-75
2021/05/19 12:43:26;;;;;;;13.60;5.47;;;17.00;23.30;;;;;;5032809;28;20597;-76
2021/05/19 12:45:53;;;;;;;12.63;5.45;;;16.90;24.70;;;;;;5016568;28;20387;-75
2021/05/19 12:48:23;;;;;;;5.32;2.30;;;16.90;23.70;;;;;;5016084;28;20391;-75
2021/05/19 12:50:50;;;;;;;8.90;2.10;;;17.00;23.20;;;;;;5035305;28;20403;-77
2021/05/19 12:53:45;;;;;;;5.32;1.60;;;17.10;21.20;;;;;;5043075;28;20391;-75
2021/05/19 12:56:16;;;;;;;4.78;2.08;;;17.30;21.10;;;;;;5026196;28;20449;-75
2021/05/19 12:59:06;;;;;;;9.27;2.90;;;17.80;19.30;;;;;;5046021;28;20398;-76